Terminal Aerodrome Forecast
Issued by NWS

Home | Current Version | Previous Version | Text Only | Print | Product List | Glossary On
Versions: 1 2 3 4 5 6 7 8 9 10 11 12 13 14 15 16 17 18 19 20 21 22 23 24 25 26 27 28
179
FTUS44 KFWD 282331
TAFDAL
TAF
KDAL 282331Z 2900/2924 12014G24KT P6SM SKC
     FM290400 11012KT P6SM VCSH BKN050
     FM290700 13011KT 5SM -SHRA VCTS BKN018 OVC040CB
     FM291000 15008KT 6SM BR OVC008
     FM291600 17016KT P6SM SCT015 BKN030
     FM292000 16017KT P6SM VCTS SCT025 BKN050CB=

USA.gov is the U.S. government's official web portal to all federal, state and local government web resources and services.